createdAt,value
2023-07-22T00:00:48.670Z,15.40
2023-07-22T00:03:16.867Z,15.30
2023-07-22T00:05:46.189Z,15.40
2023-07-22T00:08:14.343Z,15.30
2023-07-22T00:10:43.070Z,15.30
2023-07-22T00:13:11.386Z,15.30
2023-07-22T00:15:39.448Z,15.20
2023-07-22T00:18:07.984Z,15.20
2023-07-22T00:20:36.188Z,15.10
2023-07-22T00:23:04.616Z,15.10
2023-07-22T00:25:32.731Z,15.00
2023-07-22T00:28:00.888Z,14.90
2023-07-22T00:30:30.743Z,14.80
2023-07-22T00:32:59.004Z,14.90
2023-07-22T00:35:27.196Z,14.90
2023-07-22T00:37:55.461Z,14.90
2023-07-22T00:40:33.348Z,14.90
2023-07-22T00:43:02.076Z,14.80
2023-07-22T00:45:30.345Z,14.80
2023-07-22T00:47:58.545Z,14.80
2023-07-22T00:50:26.758Z,14.90
2023-07-22T00:52:55.275Z,14.80
2023-07-22T00:55:23.477Z,14.80
2023-07-22T00:57:51.893Z,14.80
2023-07-22T01:00:20.308Z,14.70
2023-07-22T01:02:48.608Z,14.60
2023-07-22T01:05:19.204Z,14.60
2023-07-22T01:07:47.738Z,14.60
2023-07-22T01:10:17.492Z,14.50
2023-07-22T01:12:47.412Z,14.60
2023-07-22T01:15:16.369Z,14.60
2023-07-22T01:17:44.783Z,14.60
2023-07-22T01:20:13.438Z,14.70
2023-07-22T01:22:45.877Z,14.70
2023-07-22T01:25:15.623Z,14.70
2023-07-22T01:27:44.058Z,14.70
2023-07-22T01:30:12.900Z,14.60
2023-07-22T01:32:41.335Z,14.60
2023-07-22T01:35:12.983Z,14.60
2023-07-22T01:37:41.411Z,14.60
2023-07-22T01:40:15.634Z,14.50
2023-07-22T01:42:44.343Z,14.50
2023-07-22T01:45:13.126Z,14.50
2023-07-22T01:47:42.482Z,14.50
2023-07-22T01:50:11.450Z,14.60
2023-07-22T01:52:39.780Z,14.50
2023-07-22T01:55:08.537Z,14.50
2023-07-22T01:57:40.036Z,14.50
2023-07-22T02:00:11.536Z,14.60
2023-07-22T02:02:42.634Z,14.60
2023-07-22T02:05:12.863Z,14.60
2023-07-22T02:07:41.599Z,14.60
2023-07-22T02:10:10.807Z,14.70
2023-07-22T02:12:39.393Z,14.60
2023-07-22T02:15:08.164Z,14.50
2023-07-22T02:17:36.418Z,14.30
2023-07-22T02:20:04.747Z,14.20
2023-07-22T02:22:32.921Z,14.20
2023-07-22T02:25:01.223Z,14.30
2023-07-22T02:27:29.534Z,14.30
2023-07-22T02:29:57.792Z,14.40
2023-07-22T02:32:26.156Z,14.40
2023-07-22T02:34:54.403Z,14.50
2023-07-22T02:37:22.612Z,14.50
2023-07-22T02:39:50.886Z,14.50
2023-07-22T02:42:19.659Z,14.50
2023-07-22T02:44:47.923Z,14.50
2023-07-22T02:47:16.640Z,14.60
2023-07-22T02:49:44.846Z,14.60
2023-07-22T02:52:13.356Z,14.50
2023-07-22T02:54:42.743Z,14.50
2023-07-22T02:57:11.017Z,14.60
2023-07-22T02:59:39.517Z,14.50
2023-07-22T03:02:07.854Z,14.50
2023-07-22T03:04:36.226Z,14.60
2023-07-22T03:07:04.447Z,14.60
2023-07-22T03:09:32.765Z,14.60
2023-07-22T03:12:00.931Z,14.50
2023-07-22T03:14:29.252Z,14.50
2023-07-22T03:16:57.624Z,14.40
2023-07-22T03:19:25.829Z,14.40
2023-07-22T03:21:54.119Z,14.30
2023-07-22T03:24:22.424Z,14.30
2023-07-22T03:26:51.257Z,14.30
2023-07-22T03:29:19.500Z,14.30
2023-07-22T03:31:47.865Z,14.30
2023-07-22T03:34:17.487Z,14.30
2023-07-22T03:36:45.697Z,14.30
2023-07-22T03:39:14.065Z,14.30
2023-07-22T03:41:42.348Z,14.30
2023-07-22T03:44:14.442Z,14.30
2023-07-22T03:46:46.077Z,14.30
2023-07-22T03:49:14.511Z,14.30
2023-07-22T03:51:46.059Z,14.30
2023-07-22T03:54:14.313Z,14.30
2023-07-22T03:56:43.663Z,14.30
2023-07-22T03:59:11.991Z,14.30
2023-07-22T04:01:40.435Z,14.30
2023-07-22T04:04:08.837Z,14.30
2023-07-22T04:06:37.135Z,14.30
2023-07-22T04:09:05.447Z,14.20
2023-07-22T04:11:33.798Z,14.20
2023-07-22T04:14:02.127Z,14.20
2023-07-22T04:16:30.654Z,14.20
2023-07-22T04:18:59.065Z,14.20
2023-07-22T04:21:27.941Z,14.30
2023-07-22T04:23:56.158Z,14.30
2023-07-22T04:26:27.469Z,14.30
2023-07-22T04:28:58.668Z,14.30
2023-07-22T04:31:28.269Z,14.30
2023-07-22T04:33:57.202Z,14.30
2023-07-22T04:36:25.912Z,14.30
2023-07-22T04:38:55.049Z,14.30
2023-07-22T04:41:23.690Z,14.40
2023-07-22T04:43:53.685Z,14.50
2023-07-22T04:46:21.966Z,14.60
2023-07-22T04:48:51.078Z,14.70
2023-07-22T04:51:19.526Z,14.70
2023-07-22T04:53:50.595Z,14.80
2023-07-22T04:56:18.960Z,14.80
2023-07-22T04:58:47.289Z,14.90
2023-07-22T05:01:15.663Z,14.90
2023-07-22T05:03:45.458Z,15.00
2023-07-22T05:06:13.929Z,15.00
2023-07-22T05:08:43.180Z,15.00
2023-07-22T05:11:13.701Z,15.10
2023-07-22T05:13:42.468Z,15.10
2023-07-22T05:16:11.148Z,15.10
2023-07-22T05:18:41.276Z,15.10
2023-07-22T05:21:09.631Z,15.10
2023-07-22T05:23:38.296Z,15.20
2023-07-22T05:26:06.808Z,15.20
2023-07-22T05:28:35.354Z,15.30
2023-07-22T05:31:03.824Z,15.30
2023-07-22T05:33:32.147Z,15.40
2023-07-22T05:36:00.664Z,15.40
2023-07-22T05:38:29.192Z,15.50
2023-07-22T05:40:57.485Z,15.60
2023-07-22T05:43:25.820Z,15.60
2023-07-22T05:45:54.127Z,15.70
2023-07-22T05:48:23.928Z,15.70
2023-07-22T05:50:52.267Z,15.80
2023-07-22T05:53:21.306Z,15.80
2023-07-22T05:55:50.619Z,15.80
2023-07-22T05:58:20.203Z,15.80
2023-07-22T06:00:54.530Z,15.70
2023-07-22T06:03:46.747Z,15.70
2023-07-22T06:06:18.396Z,15.70
2023-07-22T06:08:49.267Z,15.70
2023-07-22T06:11:18.299Z,15.70
2023-07-22T06:13:51.328Z,15.60
2023-07-22T06:16:20.536Z,15.70
2023-07-22T06:18:48.912Z,15.70
2023-07-22T06:21:17.449Z,15.70
2023-07-22T06:23:45.963Z,15.60
2023-07-22T06:26:35.150Z,15.50
2023-07-22T06:29:09.282Z,15.30
2023-07-22T06:31:37.782Z,15.30
2023-07-22T06:34:05.886Z,15.40
2023-07-22T06:36:36.751Z,15.40
2023-07-22T06:39:05.087Z,15.50
2023-07-22T06:41:33.145Z,15.50
2023-07-22T06:44:01.217Z,15.60
2023-07-22T06:46:29.542Z,15.60
2023-07-22T06:48:57.972Z,15.60
2023-07-22T06:51:26.061Z,15.60
2023-07-22T06:53:54.286Z,15.60
2023-07-22T06:56:22.905Z,15.60
2023-07-22T06:58:54.972Z,15.60
2023-07-22T07:01:23.138Z,15.70
2023-07-22T07:03:51.681Z,15.70
2023-07-22T07:06:20.005Z,15.70
2023-07-22T07:08:48.181Z,15.70
2023-07-22T07:11:18.877Z,15.80
2023-07-22T07:13:47.011Z,15.80
2023-07-22T07:16:26.243Z,15.80
2023-07-22T07:18:54.723Z,15.90
2023-07-22T07:21:23.122Z,16.00
2023-07-22T07:23:54.432Z,16.00
2023-07-22T07:26:23.623Z,16.00
2023-07-22T07:28:53.301Z,16.00
2023-07-22T07:31:21.913Z,16.00
2023-07-22T07:33:50.021Z,16.00
2023-07-22T07:36:18.151Z,16.10
2023-07-22T07:38:46.288Z,16.10
2023-07-22T07:41:15.016Z,16.00
2023-07-22T07:43:43.737Z,16.00
2023-07-22T07:46:20.005Z,16.00
2023-07-22T07:48:49.574Z,16.00
2023-07-22T07:51:21.909Z,16.00
2023-07-22T07:53:50.692Z,16.00
2023-07-22T07:56:19.584Z,16.00
2023-07-22T07:58:48.238Z,16.00
2023-07-22T08:01:16.842Z,16.00
2023-07-22T08:03:45.254Z,16.10
2023-07-22T08:06:13.784Z,16.20
2023-07-22T08:08:42.357Z,16.30
2023-07-22T08:11:12.020Z,16.40
2023-07-22T08:13:40.249Z,16.60
2023-07-22T08:16:13.365Z,16.80
2023-07-22T08:18:46.857Z,16.90
2023-07-22T08:21:15.493Z,17.10
2023-07-22T08:23:48.114Z,17.30
2023-07-22T08:26:16.500Z,17.50
2023-07-22T08:28:44.782Z,17.90
2023-07-22T08:31:13.157Z,18.20
2023-07-22T08:33:42.250Z,18.50
2023-07-22T08:36:11.075Z,18.50
2023-07-22T08:38:39.607Z,18.80
2023-07-22T08:41:07.782Z,19.30
2023-07-22T08:43:36.821Z,19.70
2023-07-22T08:46:06.638Z,19.80
2023-07-22T08:48:36.965Z,19.80
2023-07-22T08:51:07.115Z,19.90
2023-07-22T08:53:39.507Z,19.90
2023-07-22T08:56:07.810Z,19.90
2023-07-22T08:58:36.527Z,19.90
2023-07-22T09:01:04.861Z,19.90
2023-07-22T09:03:33.370Z,19.90
2023-07-22T09:06:01.626Z,19.60
2023-07-22T09:08:29.810Z,19.50
2023-07-22T09:10:58.241Z,19.60
2023-07-22T09:13:27.087Z,19.70
2023-07-22T09:15:55.849Z,19.70
2023-07-22T09:18:23.936Z,19.90
2023-07-22T09:20:53.021Z,20.30
2023-07-22T09:23:36.753Z,20.60
2023-07-22T09:26:12.018Z,20.70
2023-07-22T09:28:53.206Z,21.00
2023-07-22T09:31:23.065Z,21.20
2023-07-22T09:33:52.107Z,21.30
2023-07-22T09:36:20.172Z,21.00
2023-07-22T09:39:00.003Z,20.80
2023-07-22T09:41:32.801Z,20.80
2023-07-22T09:44:04.839Z,21.00
2023-07-22T09:46:33.948Z,21.60
2023-07-22T09:49:04.830Z,22.20
2023-07-22T09:51:45.540Z,22.30
2023-07-22T09:54:21.586Z,22.40
2023-07-22T09:56:52.079Z,22.50
2023-07-22T09:59:22.487Z,22.80
2023-07-22T10:01:51.506Z,22.80
2023-07-22T10:04:20.441Z,22.80
2023-07-22T10:06:48.552Z,23.00
2023-07-22T10:09:17.729Z,22.90
2023-07-22T10:11:46.258Z,22.50
2023-07-22T10:14:16.293Z,22.40
2023-07-22T10:16:44.537Z,22.30
2023-07-22T10:19:13.479Z,22.30
2023-07-22T10:21:42.096Z,22.10
2023-07-22T10:24:10.353Z,22.50
2023-07-22T10:26:46.903Z,22.40
2023-07-22T10:29:16.152Z,22.70
2023-07-22T10:31:44.274Z,23.20
2023-07-22T10:34:12.714Z,23.70
2023-07-22T10:36:40.860Z,24.10
2023-07-22T10:39:09.821Z,24.20
2023-07-22T10:41:40.526Z,24.10
2023-07-22T10:44:08.705Z,23.30
2023-07-22T10:46:38.038Z,22.80
2023-07-22T10:49:24.340Z,22.60
2023-07-22T10:51:53.628Z,22.60
2023-07-22T10:54:38.577Z,22.60
2023-07-22T10:57:24.887Z,22.70
2023-07-22T10:59:53.636Z,22.80
2023-07-22T11:02:28.719Z,22.70
2023-07-22T11:05:01.584Z,22.60
2023-07-22T11:07:33.579Z,22.50
2023-07-22T11:10:13.167Z,22.30
2023-07-22T11:12:42.141Z,22.10
2023-07-22T11:15:10.320Z,22.00
2023-07-22T11:17:39.716Z,22.20
2023-07-22T11:20:08.042Z,22.20
2023-07-22T11:22:36.252Z,22.20
2023-07-22T11:25:05.356Z,22.20
2023-07-22T11:27:33.545Z,22.30
2023-07-22T11:30:01.698Z,22.90
2023-07-22T11:32:29.888Z,23.30
2023-07-22T11:34:58.171Z,23.50
2023-07-22T11:37:26.215Z,23.80
2023-07-22T11:39:54.308Z,24.20
2023-07-22T11:42:22.383Z,24.60
2023-07-22T11:44:50.513Z,25.20
2023-07-22T11:47:18.867Z,25.40
2023-07-22T11:49:49.530Z,25.10
2023-07-22T11:52:18.114Z,24.50
2023-07-22T11:54:47.704Z,24.10
2023-07-22T11:57:15.806Z,23.80
2023-07-22T11:59:48.287Z,23.80
2023-07-22T12:02:20.740Z,23.40
2023-07-22T12:05:07.633Z,23.50
2023-07-22T12:07:36.862Z,23.60
2023-07-22T12:10:09.510Z,23.50
2023-07-22T12:12:38.690Z,23.50
2023-07-22T12:15:11.397Z,23.60
2023-07-22T12:17:48.938Z,23.60
2023-07-22T12:20:17.592Z,23.90
2023-07-22T12:22:45.974Z,24.30
2023-07-22T12:25:14.118Z,24.60
2023-07-22T12:27:42.410Z,25.10
2023-07-22T12:30:10.702Z,25.40
2023-07-22T12:32:40.293Z,25.60
2023-07-22T12:35:08.946Z,26.00
2023-07-22T12:37:37.320Z,26.10
2023-07-22T12:40:10.559Z,26.00
2023-07-22T12:42:38.978Z,26.00
2023-07-22T12:45:07.379Z,26.30
2023-07-22T12:47:35.630Z,26.40
2023-07-22T12:50:03.746Z,25.80
2023-07-22T12:52:31.817Z,25.60
2023-07-22T12:55:00.217Z,25.40
2023-07-22T12:57:28.287Z,25.10
2023-07-22T12:59:56.339Z,24.80
2023-07-22T13:02:25.143Z,24.70
2023-07-22T13:04:53.195Z,24.90
2023-07-22T13:07:21.216Z,25.20
2023-07-22T13:09:51.103Z,25.50
2023-07-22T13:12:19.290Z,25.60
2023-07-22T13:14:47.871Z,25.70
2023-07-22T13:17:16.027Z,25.90
2023-07-22T13:19:44.092Z,26.20
2023-07-22T13:22:12.194Z,26.40
2023-07-22T13:24:40.286Z,26.40
2023-07-22T13:27:08.880Z,26.20
2023-07-22T13:29:36.939Z,26.00
2023-07-22T13:32:06.562Z,25.80
2023-07-22T13:34:34.703Z,25.50
2023-07-22T13:37:08.902Z,25.20
2023-07-22T13:39:39.564Z,24.90
2023-07-22T13:42:07.856Z,24.60
2023-07-22T13:44:37.599Z,24.40
2023-07-22T13:47:07.512Z,24.30
2023-07-22T13:49:35.614Z,24.30
2023-07-22T13:52:03.693Z,24.20
2023-07-22T13:54:31.781Z,24.20
2023-07-22T13:57:00.044Z,24.50
2023-07-22T13:59:28.076Z,24.70
2023-07-22T14:01:57.465Z,24.70
2023-07-22T14:04:25.665Z,24.60
2023-07-22T14:06:53.747Z,24.90
2023-07-22T14:09:22.046Z,25.00
2023-07-22T14:11:50.145Z,25.20
2023-07-22T14:14:18.625Z,25.10
2023-07-22T14:16:46.712Z,24.90
2023-07-22T14:19:14.758Z,24.80
2023-07-22T14:21:42.801Z,24.90
2023-07-22T14:24:10.842Z,25.00
2023-07-22T14:26:38.924Z,25.10
2023-07-22T14:29:06.968Z,25.00
2023-07-22T14:31:35.081Z,24.90
2023-07-22T14:34:03.139Z,24.90
2023-07-22T14:36:31.227Z,25.00
2023-07-22T14:39:00.018Z,24.80
2023-07-22T14:41:28.248Z,24.80
2023-07-22T14:43:56.432Z,24.70
2023-07-22T14:46:24.550Z,24.60
2023-07-22T14:48:53.079Z,24.70
2023-07-22T14:51:21.208Z,25.00
2023-07-22T14:53:49.370Z,25.40
2023-07-22T14:56:17.443Z,25.70
2023-07-22T14:58:45.558Z,25.80
2023-07-22T15:01:13.760Z,25.60
2023-07-22T15:03:41.974Z,25.40
2023-07-22T15:06:10.089Z,25.40
2023-07-22T15:08:38.129Z,25.20
2023-07-22T15:11:06.267Z,25.10
2023-07-22T15:13:34.405Z,25.00
2023-07-22T15:16:03.663Z,25.00
2023-07-22T15:18:32.036Z,25.20
2023-07-22T15:21:00.105Z,25.30
2023-07-22T15:23:28.269Z,25.30
2023-07-22T15:25:56.481Z,25.30
2023-07-22T15:28:24.544Z,25.10
2023-07-22T15:30:52.616Z,25.00
2023-07-22T15:33:20.680Z,24.90
2023-07-22T15:35:48.778Z,24.90
2023-07-22T15:38:16.862Z,24.90
2023-07-22T15:40:44.985Z,25.10
2023-07-22T15:43:13.168Z,25.40
2023-07-22T15:45:41.280Z,25.60
2023-07-22T15:48:11.566Z,25.70
2023-07-22T15:50:39.921Z,25.80
2023-07-22T15:53:09.207Z,25.90
2023-07-22T15:55:40.274Z,25.90
2023-07-22T15:58:08.404Z,25.90
2023-07-22T16:00:36.508Z,25.70
2023-07-22T16:03:04.712Z,25.50
2023-07-22T16:05:32.846Z,25.60
2023-07-22T16:08:01.340Z,25.60
2023-07-22T16:10:29.571Z,25.50
2023-07-22T16:12:57.623Z,25.40
2023-07-22T16:15:26.219Z,25.30
2023-07-22T16:17:54.267Z,25.20
2023-07-22T16:20:22.836Z,25.10
2023-07-22T16:22:50.849Z,25.10
2023-07-22T16:25:18.903Z,25.20
2023-07-22T16:27:46.933Z,25.10
2023-07-22T16:30:15.138Z,25.00
2023-07-22T16:32:45.226Z,24.90
2023-07-22T16:35:13.570Z,24.80
2023-07-22T16:37:41.776Z,24.80
2023-07-22T16:40:13.279Z,24.80
2023-07-22T16:42:41.724Z,24.80
2023-07-22T16:45:10.349Z,24.90
2023-07-22T16:47:38.686Z,25.00
2023-07-22T16:50:07.242Z,25.00
2023-07-22T16:52:35.324Z,25.10
2023-07-22T16:55:03.488Z,25.00
2023-07-22T16:57:31.588Z,25.00
2023-07-22T17:00:00.237Z,25.00
2023-07-22T17:02:28.642Z,25.00
2023-07-22T17:04:56.674Z,25.00
2023-07-22T17:07:25.734Z,25.00
2023-07-22T17:09:53.820Z,25.00
2023-07-22T17:12:21.848Z,24.90
2023-07-22T17:14:49.931Z,25.00
2023-07-22T17:17:17.999Z,24.90
2023-07-22T17:19:46.027Z,24.90
2023-07-22T17:22:14.116Z,24.90
2023-07-22T17:24:42.219Z,24.90
2023-07-22T17:27:10.261Z,24.80
2023-07-22T17:29:39.516Z,24.90
2023-07-22T17:32:09.051Z,24.80
2023-07-22T17:34:37.134Z,24.70
2023-07-22T17:37:05.290Z,24.70
2023-07-22T17:39:33.312Z,24.80
2023-07-22T17:42:01.422Z,24.70
2023-07-22T17:44:29.622Z,24.70
2023-07-22T17:46:57.733Z,24.70
2023-07-22T17:49:29.502Z,24.60
2023-07-22T17:52:05.495Z,24.50
2023-07-22T17:54:33.626Z,24.50
2023-07-22T17:57:01.673Z,24.40
2023-07-22T17:59:29.844Z,24.30
2023-07-22T18:01:57.896Z,24.30
2023-07-22T18:04:25.994Z,24.20
2023-07-22T18:06:54.077Z,24.10
2023-07-22T18:09:22.193Z,24.10
2023-07-22T18:11:50.231Z,24.00
2023-07-22T18:14:18.279Z,24.00
2023-07-22T18:16:46.307Z,23.90
2023-07-22T18:19:14.576Z,23.80
2023-07-22T18:21:42.647Z,23.80
2023-07-22T18:24:11.712Z,23.70
2023-07-22T18:26:39.806Z,23.60
2023-07-22T18:29:07.813Z,23.50
2023-07-22T18:31:35.884Z,23.50
2023-07-22T18:34:03.979Z,23.30
2023-07-22T18:36:32.088Z,23.30
2023-07-22T18:39:00.130Z,23.10
2023-07-22T18:41:30.128Z,22.80
2023-07-22T18:43:58.322Z,22.60
2023-07-22T18:46:26.525Z,22.50
2023-07-22T18:48:54.652Z,22.40
2023-07-22T18:51:22.742Z,22.20
2023-07-22T18:53:50.818Z,22.10
2023-07-22T18:56:18.896Z,22.00
2023-07-22T18:58:47.418Z,21.90
2023-07-22T19:01:15.715Z,21.80
2023-07-22T19:03:44.055Z,21.70
2023-07-22T19:06:12.122Z,21.50
2023-07-22T19:08:40.233Z,21.40
2023-07-22T19:11:10.574Z,21.30
2023-07-22T19:13:38.720Z,21.10
2023-07-22T19:16:06.895Z,21.00
2023-07-22T19:18:35.114Z,20.90
2023-07-22T19:21:04.539Z,20.80
2023-07-22T19:23:32.756Z,20.70
2023-07-22T19:26:01.381Z,20.60
2023-07-22T19:28:31.004Z,20.40
2023-07-22T19:30:59.232Z,20.40
2023-07-22T19:33:27.586Z,20.20
2023-07-22T19:36:13.257Z,20.10
2023-07-22T19:38:41.431Z,20.00
2023-07-22T19:41:10.473Z,19.90
2023-07-22T19:43:39.237Z,19.80
2023-07-22T19:46:08.602Z,19.80
2023-07-22T19:48:37.222Z,19.60
2023-07-22T19:51:05.970Z,19.40
2023-07-22T19:53:34.202Z,19.30
2023-07-22T19:56:02.625Z,19.20
2023-07-22T19:58:30.778Z,19.00
2023-07-22T20:01:04.074Z,18.90
2023-07-22T20:03:32.876Z,18.80
2023-07-22T20:06:01.076Z,18.70
2023-07-22T20:08:29.202Z,18.80
2023-07-22T20:10:57.285Z,18.70
2023-07-22T20:13:25.833Z,18.60
2023-07-22T20:15:54.230Z,18.50
2023-07-22T20:18:22.353Z,18.40
2023-07-22T20:20:50.460Z,18.40
2023-07-22T20:23:18.640Z,18.30
2023-07-22T20:25:46.760Z,18.20
2023-07-22T20:28:14.838Z,18.20
2023-07-22T20:30:42.917Z,18.20
2023-07-22T20:33:11.746Z,18.20
2023-07-22T20:35:39.880Z,18.10
2023-07-22T20:38:08.006Z,18.20
2023-07-22T20:40:36.081Z,18.20
2023-07-22T20:43:04.148Z,18.20
2023-07-22T20:45:32.321Z,18.20
2023-07-22T20:48:01.045Z,18.30
2023-07-22T20:50:29.183Z,18.30
2023-07-22T20:52:57.296Z,18.30
2023-07-22T20:55:25.382Z,18.30
2023-07-22T20:57:53.548Z,18.20
2023-07-22T21:00:21.777Z,18.10
2023-07-22T21:02:49.981Z,18.00
2023-07-22T21:05:18.234Z,18.10
2023-07-22T21:07:46.936Z,18.20
2023-07-22T21:10:15.032Z,18.10
2023-07-22T21:12:43.131Z,18.10
2023-07-22T21:15:11.245Z,18.10
2023-07-22T21:17:39.479Z,18.00
2023-07-22T21:20:07.994Z,17.90
2023-07-22T21:22:36.114Z,17.70
2023-07-22T21:25:04.333Z,17.70
2023-07-22T21:27:47.371Z,17.50
2023-07-22T21:30:17.175Z,17.30
2023-07-22T21:32:45.358Z,17.30
2023-07-22T21:35:13.715Z,17.30
2023-07-22T21:37:41.850Z,17.30
2023-07-22T21:40:10.378Z,17.30
2023-07-22T21:42:38.849Z,17.30
2023-07-22T21:45:07.371Z,17.30
2023-07-22T21:47:35.447Z,17.30
2023-07-22T21:50:03.598Z,17.20
2023-07-22T21:52:31.671Z,17.10
2023-07-22T21:54:59.834Z,17.00
2023-07-22T21:57:28.129Z,16.90
2023-07-22T21:59:56.271Z,16.70
2023-07-22T22:02:24.593Z,16.50
2023-07-22T22:04:52.740Z,16.50
2023-07-22T22:07:20.823Z,16.50
2023-07-22T22:09:48.860Z,16.60
2023-07-22T22:12:16.968Z,16.60
2023-07-22T22:14:45.078Z,16.60
2023-07-22T22:17:15.107Z,16.50
2023-07-22T22:19:43.286Z,16.30
2023-07-22T22:22:11.383Z,16.10
2023-07-22T22:24:39.637Z,16.10
2023-07-22T22:27:07.902Z,16.10
2023-07-22T22:29:35.997Z,16.20
2023-07-22T22:32:04.185Z,16.30
2023-07-22T22:34:32.377Z,16.20
2023-07-22T22:37:02.707Z,16.10
2023-07-22T22:39:30.949Z,16.10
2023-07-22T22:41:59.025Z,16.20
2023-07-22T22:44:27.097Z,16.30
2023-07-22T22:46:55.170Z,16.30
2023-07-22T22:49:23.187Z,16.40
2023-07-22T22:51:51.314Z,16.50
2023-07-22T22:54:19.473Z,16.50
2023-07-22T22:56:47.849Z,16.50
2023-07-22T22:59:15.939Z,16.50
2023-07-22T23:01:44.092Z,16.50
2023-07-22T23:04:12.241Z,16.60
2023-07-22T23:06:40.326Z,16.60
2023-07-22T23:09:11.901Z,16.60
2023-07-22T23:11:39.973Z,16.50
2023-07-22T23:14:10.125Z,16.60
2023-07-22T23:16:40.329Z,16.70
2023-07-22T23:19:08.474Z,16.80
2023-07-22T23:21:36.498Z,16.70
2023-07-22T23:24:05.570Z,16.70
2023-07-22T23:26:33.932Z,16.70
2023-07-22T23:29:02.025Z,16.70
2023-07-22T23:31:30.406Z,16.80
2023-07-22T23:33:58.771Z,16.80
2023-07-22T23:36:27.530Z,16.80
2023-07-22T23:38:55.627Z,16.90
2023-07-22T23:41:23.686Z,16.80
2023-07-22T23:43:51.834Z,16.70
2023-07-22T23:46:19.924Z,16.80
2023-07-22T23:48:48.418Z,16.80
2023-07-22T23:51:18.694Z,16.80
2023-07-22T23:53:46.794Z,16.80
2023-07-22T23:56:14.900Z,16.70
2023-07-22T23:58:43.475Z,16.70
